Weather at Carlos Rovirosa Pérez International Airport

Public forecast

Using degrees Celsius for public forecast. Weather courtesy of forecast.io.

Current aviation weather report (METAR) for Carlos Rovirosa Pérez International Airport

Retrieved 2020/11/24 16:44 UTC (58 minutes ago):

MMVA 241644Z 00000KT 7SM SCT015 28/22 A3008 RMK 8/100

Aviation forecast (TAF) for Carlos Rovirosa Pérez International Airport

Forecast is more than 6 hours old.

Retrieved 2020/11/24 06:28 UTC (11 hours ago):

TAF MMVA 240526Z 2406/2506 00000KT 5SM HZ SCT020 SCT060 TEMPO 2410/2414 2SM BR BKN010 FM241800 03010KT 6SM HZ SCT020 BKN060 FM250300 03005KT 6SM HZ SCT015